sensor_id;sensor_type;location;lat;lon;timestamp;temperature;humidity
17425;DHT22;8830;50.978;5.058;2022-07-23T00:00:18;17.50;99.90
17425;DHT22;8830;50.978;5.058;2022-07-23T00:02:45;17.50;99.90
17425;DHT22;8830;50.978;5.058;2022-07-23T00:05:12;17.50;99.90
17425;DHT22;8830;50.978;5.058;2022-07-23T00:07:41;17.60;99.90
17425;DHT22;8830;50.978;5.058;2022-07-23T00:10:09;17.60;99.90
17425;DHT22;8830;50.978;5.058;2022-07-23T00:12:37;17.60;99.90
17425;DHT22;8830;50.978;5.058;2022-07-23T00:15:05;17.50;99.90
17425;DHT22;8830;50.978;5.058;2022-07-23T00:17:33;17.50;99.90
17425;DHT22;8830;50.978;5.058;2022-07-23T00:20:00;17.50;99.90
17425;DHT22;8830;50.978;5.058;2022-07-23T00:22:27;17.50;99.90
17425;DHT22;8830;50.978;5.058;2022-07-23T00:24:56;17.50;99.90
17425;DHT22;8830;50.978;5.058;2022-07-23T00:27:23;17.40;99.90
17425;DHT22;8830;50.978;5.058;2022-07-23T00:29:50;17.40;99.90
17425;DHT22;8830;50.978;5.058;2022-07-23T00:32:17;17.40;99.90
17425;DHT22;8830;50.978;5.058;2022-07-23T00:34:44;17.40;99.90
17425;DHT22;8830;50.978;5.058;2022-07-23T00:37:12;17.40;99.90
17425;DHT22;8830;50.978;5.058;2022-07-23T00:39:39;17.30;99.90
17425;DHT22;8830;50.978;5.058;2022-07-23T00:42:08;17.40;99.90
17425;DHT22;8830;50.978;5.058;2022-07-23T00:44:35;17.30;99.90
17425;DHT22;8830;50.978;5.058;2022-07-23T00:47:02;17.30;99.90
17425;DHT22;8830;50.978;5.058;2022-07-23T00:49:31;17.30;99.90
17425;DHT22;8830;50.978;5.058;2022-07-23T00:52:01;17.20;99.90
17425;DHT22;8830;50.978;5.058;2022-07-23T00:54:28;17.10;99.90
17425;DHT22;8830;50.978;5.058;2022-07-23T00:56:55;17.10;99.90
17425;DHT22;8830;50.978;5.058;2022-07-23T00:59:24;17.20;99.90
17425;DHT22;8830;50.978;5.058;2022-07-23T01:01:52;17.10;99.90
17425;DHT22;8830;50.978;5.058;2022-07-23T01:04:18;17.10;99.90
17425;DHT22;8830;50.978;5.058;2022-07-23T01:06:46;17.10;99.90
17425;DHT22;8830;50.978;5.058;2022-07-23T01:09:13;17.00;99.90
17425;DHT22;8830;50.978;5.058;2022-07-23T01:11:41;17.00;99.90
17425;DHT22;8830;50.978;5.058;2022-07-23T01:14:10;17.00;99.90
17425;DHT22;8830;50.978;5.058;2022-07-23T01:16:38;17.00;99.90
17425;DHT22;8830;50.978;5.058;2022-07-23T01:19:05;17.00;99.90
17425;DHT22;8830;50.978;5.058;2022-07-23T01:21:35;17.00;99.90
17425;DHT22;8830;50.978;5.058;2022-07-23T01:24:04;17.00;99.90
17425;DHT22;8830;50.978;5.058;2022-07-23T01:26:32;17.00;99.90
17425;DHT22;8830;50.978;5.058;2022-07-23T01:28:59;16.90;99.90
17425;DHT22;8830;50.978;5.058;2022-07-23T01:31:26;16.90;99.90
17425;DHT22;8830;50.978;5.058;2022-07-23T01:33:54;16.90;99.90
17425;DHT22;8830;50.978;5.058;2022-07-23T01:36:21;16.90;99.90
17425;DHT22;8830;50.978;5.058;2022-07-23T01:38:48;16.90;99.90
17425;DHT22;8830;50.978;5.058;2022-07-23T01:41:17;16.90;99.90
17425;DHT22;8830;50.978;5.058;2022-07-23T01:43:45;16.90;99.90
17425;DHT22;8830;50.978;5.058;2022-07-23T01:46:12;16.90;99.90
17425;DHT22;8830;50.978;5.058;2022-07-23T01:48:39;16.90;99.90
17425;DHT22;8830;50.978;5.058;2022-07-23T01:51:06;16.90;99.90
17425;DHT22;8830;50.978;5.058;2022-07-23T01:53:33;16.90;99.90
17425;DHT22;8830;50.978;5.058;2022-07-23T01:56:01;16.90;99.90
17425;DHT22;8830;50.978;5.058;2022-07-23T01:58:30;16.90;99.90
17425;DHT22;8830;50.978;5.058;2022-07-23T02:00:58;16.00;99.90
17425;DHT22;8830;50.978;5.058;2022-07-23T02:03:25;16.80;99.90
17425;DHT22;8830;50.978;5.058;2022-07-23T02:05:53;16.80;99.90
17425;DHT22;8830;50.978;5.058;2022-07-23T02:08:20;16.70;99.90
17425;DHT22;8830;50.978;5.058;2022-07-23T02:10:47;16.50;99.90
17425;DHT22;8830;50.978;5.058;2022-07-23T02:13:17;16.50;99.90
17425;DHT22;8830;50.978;5.058;2022-07-23T02:15:45;16.50;99.90
17425;DHT22;8830;50.978;5.058;2022-07-23T02:20:40;16.50;99.90
17425;DHT22;8830;50.978;5.058;2022-07-23T02:23:08;16.40;99.90
17425;DHT22;8830;50.978;5.058;2022-07-23T02:25:35;16.40;99.90
17425;DHT22;8830;50.978;5.058;2022-07-23T02:28:02;16.40;99.90
17425;DHT22;8830;50.978;5.058;2022-07-23T02:30:30;16.40;99.90
17425;DHT22;8830;50.978;5.058;2022-07-23T02:32:59;16.50;99.90
17425;DHT22;8830;50.978;5.058;2022-07-23T02:35:26;16.40;99.90
17425;DHT22;8830;50.978;5.058;2022-07-23T02:37:53;16.40;99.90
17425;DHT22;8830;50.978;5.058;2022-07-23T02:40:20;16.40;99.90
17425;DHT22;8830;50.978;5.058;2022-07-23T02:42:47;16.30;99.90
17425;DHT22;8830;50.978;5.058;2022-07-23T02:45:14;16.40;99.90
17425;DHT22;8830;50.978;5.058;2022-07-23T02:47:41;16.30;99.90
17425;DHT22;8830;50.978;5.058;2022-07-23T02:50:10;16.30;99.90
17425;DHT22;8830;50.978;5.058;2022-07-23T02:52:38;16.30;99.90
17425;DHT22;8830;50.978;5.058;2022-07-23T02:55:05;16.30;99.90
17425;DHT22;8830;50.978;5.058;2022-07-23T02:57:32;16.30;99.90
17425;DHT22;8830;50.978;5.058;2022-07-23T02:59:59;16.30;99.90
17425;DHT22;8830;50.978;5.058;2022-07-23T03:02:27;16.30;99.90
17425;DHT22;8830;50.978;5.058;2022-07-23T03:04:54;16.20;99.90
17425;DHT22;8830;50.978;5.058;2022-07-23T03:07:23;16.10;99.90
17425;DHT22;8830;50.978;5.058;2022-07-23T03:09:50;16.00;99.90
17425;DHT22;8830;50.978;5.058;2022-07-23T03:12:17;16.00;99.90
17425;DHT22;8830;50.978;5.058;2022-07-23T03:14:44;16.10;99.90
17425;DHT22;8830;50.978;5.058;2022-07-23T03:17:11;16.10;99.90
17425;DHT22;8830;50.978;5.058;2022-07-23T03:19:38;16.10;99.90
17425;DHT22;8830;50.978;5.058;2022-07-23T03:22:05;16.20;99.90
17425;DHT22;8830;50.978;5.058;2022-07-23T03:24:34;16.10;99.90
17425;DHT22;8830;50.978;5.058;2022-07-23T03:27:18;16.20;99.90
17425;DHT22;8830;50.978;5.058;2022-07-23T03:29:46;16.20;99.90
17425;DHT22;8830;50.978;5.058;2022-07-23T03:32:13;16.10;99.90
17425;DHT22;8830;50.978;5.058;2022-07-23T03:34:40;16.20;99.90
17425;DHT22;8830;50.978;5.058;2022-07-23T03:37:07;16.20;99.90
17425;DHT22;8830;50.978;5.058;2022-07-23T03:39:35;16.10;99.90
17425;DHT22;8830;50.978;5.058;2022-07-23T03:42:03;16.00;99.90
17425;DHT22;8830;50.978;5.058;2022-07-23T03:44:30;15.90;99.90
17425;DHT22;8830;50.978;5.058;2022-07-23T03:46:57;15.90;99.90
17425;DHT22;8830;50.978;5.058;2022-07-23T03:49:24;15.90;99.90
17425;DHT22;8830;50.978;5.058;2022-07-23T03:51:51;15.90;99.90
17425;DHT22;8830;50.978;5.058;2022-07-23T03:54:19;15.90;99.90
17425;DHT22;8830;50.978;5.058;2022-07-23T03:56:47;15.90;99.90
17425;DHT22;8830;50.978;5.058;2022-07-23T03:59:14;15.70;99.90
17425;DHT22;8830;50.978;5.058;2022-07-23T04:01:42;15.70;99.90
17425;DHT22;8830;50.978;5.058;2022-07-23T04:04:09;15.70;99.90
17425;DHT22;8830;50.978;5.058;2022-07-23T04:06:36;15.70;99.90
17425;DHT22;8830;50.978;5.058;2022-07-23T04:09:03;15.70;99.90
17425;DHT22;8830;50.978;5.058;2022-07-23T04:11:30;15.80;99.90
17425;DHT22;8830;50.978;5.058;2022-07-23T04:13:59;15.80;99.90
17425;DHT22;8830;50.978;5.058;2022-07-23T04:18:54;15.80;99.90
17425;DHT22;8830;50.978;5.058;2022-07-23T04:21:21;15.90;99.90
17425;DHT22;8830;50.978;5.058;2022-07-23T04:23:48;15.90;99.90
17425;DHT22;8830;50.978;5.058;2022-07-23T04:26:15;15.80;99.90
17425;DHT22;8830;50.978;5.058;2022-07-23T04:28:42;15.70;99.90
17425;DHT22;8830;50.978;5.058;2022-07-23T04:31:11;15.90;99.90
17425;DHT22;8830;50.978;5.058;2022-07-23T04:33:38;15.90;99.90
17425;DHT22;8830;50.978;5.058;2022-07-23T04:36:05;16.10;99.90
17425;DHT22;8830;50.978;5.058;2022-07-23T04:38:33;16.20;99.90
17425;DHT22;8830;50.978;5.058;2022-07-23T04:43:27;16.30;99.90
17425;DHT22;8830;50.978;5.058;2022-07-23T04:45:54;16.50;99.90
17425;DHT22;8830;50.978;5.058;2022-07-23T04:48:23;16.60;99.90
17425;DHT22;8830;50.978;5.058;2022-07-23T04:50:50;16.60;99.90
17425;DHT22;8830;50.978;5.058;2022-07-23T04:53:17;16.60;99.90
17425;DHT22;8830;50.978;5.058;2022-07-23T04:58:12;16.90;99.90
17425;DHT22;8830;50.978;5.058;2022-07-23T05:03:07;17.80;99.90
17425;DHT22;8830;50.978;5.058;2022-07-23T05:05:35;17.80;99.90
17425;DHT22;8830;50.978;5.058;2022-07-23T05:10:30;20.80;99.90
17425;DHT22;8830;50.978;5.058;2022-07-23T05:12:57;20.90;99.90
17425;DHT22;8830;50.978;5.058;2022-07-23T05:15:25;21.50;99.90
17425;DHT22;8830;50.978;5.058;2022-07-23T05:17:52;22.10;99.90
17425;DHT22;8830;50.978;5.058;2022-07-23T05:20:19;22.50;99.90
17425;DHT22;8830;50.978;5.058;2022-07-23T05:22:47;23.10;99.90
17425;DHT22;8830;50.978;5.058;2022-07-23T05:25:14;23.60;99.90
17425;DHT22;8830;50.978;5.058;2022-07-23T05:27:42;23.80;99.90
17425;DHT22;8830;50.978;5.058;2022-07-23T05:30:10;24.30;99.90
17425;DHT22;8830;50.978;5.058;2022-07-23T05:32:38;24.60;99.90
17425;DHT22;8830;50.978;5.058;2022-07-23T05:35:06;23.70;99.90
17425;DHT22;8830;50.978;5.058;2022-07-23T05:37:33;25.30;99.90
17425;DHT22;8830;50.978;5.058;2022-07-23T05:40:03;25.30;99.90
17425;DHT22;8830;50.978;5.058;2022-07-23T05:42:33;24.70;99.90
17425;DHT22;8830;50.978;5.058;2022-07-23T05:45:00;24.60;99.90
17425;DHT22;8830;50.978;5.058;2022-07-23T05:47:28;24.60;99.90
17425;DHT22;8830;50.978;5.058;2022-07-23T05:49:56;24.80;99.90
17425;DHT22;8830;50.978;5.058;2022-07-23T05:54:51;25.00;99.90
17425;DHT22;8830;50.978;5.058;2022-07-23T05:57:19;25.10;99.90
17425;DHT22;8830;50.978;5.058;2022-07-23T05:59:47;25.60;99.90
17425;DHT22;8830;50.978;5.058;2022-07-23T06:02:14;25.90;99.90
17425;DHT22;8830;50.978;5.058;2022-07-23T06:04:41;25.90;99.90
17425;DHT22;8830;50.978;5.058;2022-07-23T06:07:08;25.70;99.90
17425;DHT22;8830;50.978;5.058;2022-07-23T06:09:35;25.70;99.90
17425;DHT22;8830;50.978;5.058;2022-07-23T06:12:03;27.10;99.90
17425;DHT22;8830;50.978;5.058;2022-07-23T06:14:33;27.10;99.90
17425;DHT22;8830;50.978;5.058;2022-07-23T06:17:00;27.90;99.90
17425;DHT22;8830;50.978;5.058;2022-07-23T06:19:27;28.50;99.90
17425;DHT22;8830;50.978;5.058;2022-07-23T06:21:54;28.50;99.90
17425;DHT22;8830;50.978;5.058;2022-07-23T06:24:22;28.50;99.90
17425;DHT22;8830;50.978;5.058;2022-07-23T06:26:49;29.30;99.90
17425;DHT22;8830;50.978;5.058;2022-07-23T06:29:16;29.20;99.90
17425;DHT22;8830;50.978;5.058;2022-07-23T06:31:45;27.80;99.90
17425;DHT22;8830;50.978;5.058;2022-07-23T06:34:13;27.80;99.90
17425;DHT22;8830;50.978;5.058;2022-07-23T06:36:40;28.20;99.90
17425;DHT22;8830;50.978;5.058;2022-07-23T06:39:08;27.20;99.90
17425;DHT22;8830;50.978;5.058;2022-07-23T06:41:35;28.50;99.90
17425;DHT22;8830;50.978;5.058;2022-07-23T06:44:03;29.20;99.90
17425;DHT22;8830;50.978;5.058;2022-07-23T06:46:30;28.40;99.90
17425;DHT22;8830;50.978;5.058;2022-07-23T06:48:59;26.90;99.90
17425;DHT22;8830;50.978;5.058;2022-07-23T06:51:26;26.00;99.90
17425;DHT22;8830;50.978;5.058;2022-07-23T06:53:54;25.80;99.90
17425;DHT22;8830;50.978;5.058;2022-07-23T06:56:21;25.80;99.90
17425;DHT22;8830;50.978;5.058;2022-07-23T06:58:48;25.90;99.90
17425;DHT22;8830;50.978;5.058;2022-07-23T07:01:16;27.10;99.90
17425;DHT22;8830;50.978;5.058;2022-07-23T07:03:43;25.60;99.90
17425;DHT22;8830;50.978;5.058;2022-07-23T07:06:12;27.60;99.90
17425;DHT22;8830;50.978;5.058;2022-07-23T07:08:39;27.60;99.90
17425;DHT22;8830;50.978;5.058;2022-07-23T07:11:07;27.70;99.90
17425;DHT22;8830;50.978;5.058;2022-07-23T07:13:34;28.20;99.90
17425;DHT22;8830;50.978;5.058;2022-07-23T07:16:01;27.80;99.90
17425;DHT22;8830;50.978;5.058;2022-07-23T07:18:29;27.90;99.90
17425;DHT22;8830;50.978;5.058;2022-07-23T07:20:57;29.20;99.90
17425;DHT22;8830;50.978;5.058;2022-07-23T07:23:26;30.40;99.90
17425;DHT22;8830;50.978;5.058;2022-07-23T07:25:53;30.40;99.90
17425;DHT22;8830;50.978;5.058;2022-07-23T07:28:21;30.90;99.90
17425;DHT22;8830;50.978;5.058;2022-07-23T07:30:49;31.00;99.90
17425;DHT22;8830;50.978;5.058;2022-07-23T07:33:16;31.00;99.90
17425;DHT22;8830;50.978;5.058;2022-07-23T07:35:43;31.30;99.90
17425;DHT22;8830;50.978;5.058;2022-07-23T07:38:10;31.20;99.90
17425;DHT22;8830;50.978;5.058;2022-07-23T07:40:38;31.50;99.90
17425;DHT22;8830;50.978;5.058;2022-07-23T07:43:05;31.40;99.90
17425;DHT22;8830;50.978;5.058;2022-07-23T07:45:33;31.50;99.90
17425;DHT22;8830;50.978;5.058;2022-07-23T07:48:00;31.80;99.90
17425;DHT22;8830;50.978;5.058;2022-07-23T07:50:27;31.80;99.90
17425;DHT22;8830;50.978;5.058;2022-07-23T07:52:54;31.30;99.90
17425;DHT22;8830;50.978;5.058;2022-07-23T07:55:22;30.30;99.90
17425;DHT22;8830;50.978;5.058;2022-07-23T07:57:50;30.80;99.90
17425;DHT22;8830;50.978;5.058;2022-07-23T08:00:18;31.20;99.90
17425;DHT22;8830;50.978;5.058;2022-07-23T08:02:47;31.10;99.90
17425;DHT22;8830;50.978;5.058;2022-07-23T08:05:19;31.30;99.90
17425;DHT22;8830;50.978;5.058;2022-07-23T08:07:46;31.00;99.90
17425;DHT22;8830;50.978;5.058;2022-07-23T08:10:14;31.70;99.90
17425;DHT22;8830;50.978;5.058;2022-07-23T08:12:44;31.60;99.90
17425;DHT22;8830;50.978;5.058;2022-07-23T08:15:14;31.60;99.90
17425;DHT22;8830;50.978;5.058;2022-07-23T08:17:41;30.80;99.90
17425;DHT22;8830;50.978;5.058;2022-07-23T08:20:10;31.00;99.90
17425;DHT22;8830;50.978;5.058;2022-07-23T08:22:49;31.50;99.90
17425;DHT22;8830;50.978;5.058;2022-07-23T08:25:20;31.30;99.90
17425;DHT22;8830;50.978;5.058;2022-07-23T08:27:47;31.60;99.90
17425;DHT22;8830;50.978;5.058;2022-07-23T08:30:17;31.20;99.90
17425;DHT22;8830;50.978;5.058;2022-07-23T08:32:52;30.00;99.90
17425;DHT22;8830;50.978;5.058;2022-07-23T08:35:23;30.70;99.90
17425;DHT22;8830;50.978;5.058;2022-07-23T08:37:50;32.00;99.90
17425;DHT22;8830;50.978;5.058;2022-07-23T08:40:18;32.00;99.90
17425;DHT22;8830;50.978;5.058;2022-07-23T08:42:48;31.60;99.90
17425;DHT22;8830;50.978;5.058;2022-07-23T08:45:18;31.80;99.90
17425;DHT22;8830;50.978;5.058;2022-07-23T08:47:52;31.80;99.90
17425;DHT22;8830;50.978;5.058;2022-07-23T08:50:20;31.80;99.90
17425;DHT22;8830;50.978;5.058;2022-07-23T08:52:48;32.20;99.90
17425;DHT22;8830;50.978;5.058;2022-07-23T08:55:17;33.00;99.90
17425;DHT22;8830;50.978;5.058;2022-07-23T09:00:12;32.90;99.90
17425;DHT22;8830;50.978;5.058;2022-07-23T09:02:42;33.00;99.90
17425;DHT22;8830;50.978;5.058;2022-07-23T09:05:11;33.20;99.90
17425;DHT22;8830;50.978;5.058;2022-07-23T09:08:02;32.90;99.90
17425;DHT22;8830;50.978;5.058;2022-07-23T09:10:26;32.30;99.90
17425;DHT22;8830;50.978;5.058;2022-07-23T09:12:53;32.10;99.90
17425;DHT22;8830;50.978;5.058;2022-07-23T09:15:20;31.90;99.90
17425;DHT22;8830;50.978;5.058;2022-07-23T09:20:17;32.60;99.90
17425;DHT22;8830;50.978;5.058;2022-07-23T09:22:45;31.60;99.90
17425;DHT22;8830;50.978;5.058;2022-07-23T09:25:14;30.70;99.90
17425;DHT22;8830;50.978;5.058;2022-07-23T09:27:50;30.70;99.90
17425;DHT22;8830;50.978;5.058;2022-07-23T09:30:19;30.70;99.90
17425;DHT22;8830;50.978;5.058;2022-07-23T09:33:09;30.70;99.90
17425;DHT22;8830;50.978;5.058;2022-07-23T09:35:48;30.50;99.90
17425;DHT22;8830;50.978;5.058;2022-07-23T09:38:16;30.50;99.90
17425;DHT22;8830;50.978;5.058;2022-07-23T09:40:44;29.00;99.90
17425;DHT22;8830;50.978;5.058;2022-07-23T09:43:12;27.30;99.90
17425;DHT22;8830;50.978;5.058;2022-07-23T09:45:39;27.20;99.90
17425;DHT22;8830;50.978;5.058;2022-07-23T09:48:16;27.00;99.90
17425;DHT22;8830;50.978;5.058;2022-07-23T09:50:44;27.00;99.90
17425;DHT22;8830;50.978;5.058;2022-07-23T09:53:23;27.40;99.90
17425;DHT22;8830;50.978;5.058;2022-07-23T09:55:51;26.70;99.90
17425;DHT22;8830;50.978;5.058;2022-07-23T09:58:20;26.40;99.90
17425;DHT22;8830;50.978;5.058;2022-07-23T10:00:49;26.20;99.90
17425;DHT22;8830;50.978;5.058;2022-07-23T10:03:19;27.10;99.90
17425;DHT22;8830;50.978;5.058;2022-07-23T10:05:48;27.10;99.90
17425;DHT22;8830;50.978;5.058;2022-07-23T10:08:18;26.80;99.90
17425;DHT22;8830;50.978;5.058;2022-07-23T10:10:46;26.90;99.90
17425;DHT22;8830;50.978;5.058;2022-07-23T10:18:34;26.50;99.90
17425;DHT22;8830;50.978;5.058;2022-07-23T10:21:07;26.40;99.90
17425;DHT22;8830;50.978;5.058;2022-07-23T10:23:38;26.10;99.90
17425;DHT22;8830;50.978;5.058;2022-07-23T10:26:12;26.50;99.90
17425;DHT22;8830;50.978;5.058;2022-07-23T10:29:06;26.50;99.90
17425;DHT22;8830;50.978;5.058;2022-07-23T10:31:43;26.60;99.90
17425;DHT22;8830;50.978;5.058;2022-07-23T10:34:21;26.10;99.90
17425;DHT22;8830;50.978;5.058;2022-07-23T10:36:56;26.40;99.90
17425;DHT22;8830;50.978;5.058;2022-07-23T10:39:28;26.40;99.90
17425;DHT22;8830;50.978;5.058;2022-07-23T10:42:08;26.40;99.90
17425;DHT22;8830;50.978;5.058;2022-07-23T10:44:39;26.70;99.90
17425;DHT22;8830;50.978;5.058;2022-07-23T10:47:08;26.50;99.90
17425;DHT22;8830;50.978;5.058;2022-07-23T10:52:20;27.30;99.90
17425;DHT22;8830;50.978;5.058;2022-07-23T10:54:49;27.40;99.90
17425;DHT22;8830;50.978;5.058;2022-07-23T10:57:18;27.60;99.90
17425;DHT22;8830;50.978;5.058;2022-07-23T11:00:13;27.60;99.90
17425;DHT22;8830;50.978;5.058;2022-07-23T11:02:41;27.70;99.90
17425;DHT22;8830;50.978;5.058;2022-07-23T11:05:13;27.60;99.90
17425;DHT22;8830;50.978;5.058;2022-07-23T11:08:12;27.40;99.90
17425;DHT22;8830;50.978;5.058;2022-07-23T11:10:43;27.40;99.90
17425;DHT22;8830;50.978;5.058;2022-07-23T11:13:32;27.30;99.90
17425;DHT22;8830;50.978;5.058;2022-07-23T11:16:24;27.00;99.90
17425;DHT22;8830;50.978;5.058;2022-07-23T11:19:05;27.00;99.90
17425;DHT22;8830;50.978;5.058;2022-07-23T11:21:45;27.70;99.90
17425;DHT22;8830;50.978;5.058;2022-07-23T11:24:17;27.70;99.90
17425;DHT22;8830;50.978;5.058;2022-07-23T11:27:04;27.80;99.90
17425;DHT22;8830;50.978;5.058;2022-07-23T11:29:47;27.60;99.90
17425;DHT22;8830;50.978;5.058;2022-07-23T11:32:35;27.60;99.90
17425;DHT22;8830;50.978;5.058;2022-07-23T11:35:19;27.60;99.90
17425;DHT22;8830;50.978;5.058;2022-07-23T11:37:50;27.10;99.90
17425;DHT22;8830;50.978;5.058;2022-07-23T11:40:20;27.30;99.90
17425;DHT22;8830;50.978;5.058;2022-07-23T11:42:56;27.60;99.90
17425;DHT22;8830;50.978;5.058;2022-07-23T11:45:25;27.90;99.90
17425;DHT22;8830;50.978;5.058;2022-07-23T11:47:52;27.90;99.90
17425;DHT22;8830;50.978;5.058;2022-07-23T11:50:23;27.60;99.90
17425;DHT22;8830;50.978;5.058;2022-07-23T12:00:17;27.00;99.90
17425;DHT22;8830;50.978;5.058;2022-07-23T12:02:49;27.00;99.90
17425;DHT22;8830;50.978;5.058;2022-07-23T12:05:19;26.70;99.90
17425;DHT22;8830;50.978;5.058;2022-07-23T12:07:47;26.80;99.90
17425;DHT22;8830;50.978;5.058;2022-07-23T12:10:19;26.90;99.90
17425;DHT22;8830;50.978;5.058;2022-07-23T12:12:48;26.90;99.90
17425;DHT22;8830;50.978;5.058;2022-07-23T12:15:18;27.10;99.90
17425;DHT22;8830;50.978;5.058;2022-07-23T12:17:47;27.60;99.90
17425;DHT22;8830;50.978;5.058;2022-07-23T12:20:17;27.70;99.90
17425;DHT22;8830;50.978;5.058;2022-07-23T12:22:47;27.70;99.90
17425;DHT22;8830;50.978;5.058;2022-07-23T12:25:22;27.90;99.90
17425;DHT22;8830;50.978;5.058;2022-07-23T12:27:59;27.90;99.90
17425;DHT22;8830;50.978;5.058;2022-07-23T12:30:29;28.10;99.90
17425;DHT22;8830;50.978;5.058;2022-07-23T12:32:58;28.00;99.90
17425;DHT22;8830;50.978;5.058;2022-07-23T12:35:32;27.70;99.90
17425;DHT22;8830;50.978;5.058;2022-07-23T12:38:01;27.70;99.90
17425;DHT22;8830;50.978;5.058;2022-07-23T12:40:33;27.90;99.90
17425;DHT22;8830;50.978;5.058;2022-07-23T12:43:03;28.10;99.90
17425;DHT22;8830;50.978;5.058;2022-07-23T12:45:43;27.90;99.90
17425;DHT22;8830;50.978;5.058;2022-07-23T12:48:17;28.00;99.90
17425;DHT22;8830;50.978;5.058;2022-07-23T12:50:49;28.10;99.90
17425;DHT22;8830;50.978;5.058;2022-07-23T12:53:17;28.10;99.90
17425;DHT22;8830;50.978;5.058;2022-07-23T12:55:47;28.50;99.90
17425;DHT22;8830;50.978;5.058;2022-07-23T12:58:15;28.50;99.90
17425;DHT22;8830;50.978;5.058;2022-07-23T13:00:54;28.60;99.90
17425;DHT22;8830;50.978;5.058;2022-07-23T13:03:23;28.40;99.90
17425;DHT22;8830;50.978;5.058;2022-07-23T13:05:50;28.50;99.90
17425;DHT22;8830;50.978;5.058;2022-07-23T13:08:17;28.60;99.90
17425;DHT22;8830;50.978;5.058;2022-07-23T13:13:15;28.80;99.90
17425;DHT22;8830;50.978;5.058;2022-07-23T13:15:42;28.40;99.90
17425;DHT22;8830;50.978;5.058;2022-07-23T13:18:10;28.90;99.90
17425;DHT22;8830;50.978;5.058;2022-07-23T13:20:37;27.20;99.90
17425;DHT22;8830;50.978;5.058;2022-07-23T13:25:32;28.70;99.90
17425;DHT22;8830;50.978;5.058;2022-07-23T13:30:30;28.60;99.90
17425;DHT22;8830;50.978;5.058;2022-07-23T13:32:57;28.60;99.90
17425;DHT22;8830;50.978;5.058;2022-07-23T13:35:24;28.70;99.90
17425;DHT22;8830;50.978;5.058;2022-07-23T13:37:51;28.70;99.90
17425;DHT22;8830;50.978;5.058;2022-07-23T13:40:19;28.90;99.90
17425;DHT22;8830;50.978;5.058;2022-07-23T13:42:46;28.80;99.90
17425;DHT22;8830;50.978;5.058;2022-07-23T13:50:10;28.20;99.90
17425;DHT22;8830;50.978;5.058;2022-07-23T13:52:37;28.50;99.90
17425;DHT22;8830;50.978;5.058;2022-07-23T13:55:06;28.50;99.90
17425;DHT22;8830;50.978;5.058;2022-07-23T13:57:35;28.90;99.90
17425;DHT22;8830;50.978;5.058;2022-07-23T14:00:07;28.90;99.90
17425;DHT22;8830;50.978;5.058;2022-07-23T14:02:40;28.80;99.90
17425;DHT22;8830;50.978;5.058;2022-07-23T14:05:09;28.60;99.90
17425;DHT22;8830;50.978;5.058;2022-07-23T14:07:38;28.50;99.90
17425;DHT22;8830;50.978;5.058;2022-07-23T14:10:07;28.50;99.90
17425;DHT22;8830;50.978;5.058;2022-07-23T14:15:04;28.90;99.90
17425;DHT22;8830;50.978;5.058;2022-07-23T14:20:04;28.80;99.90
17425;DHT22;8830;50.978;5.058;2022-07-23T14:22:36;28.40;99.90
17425;DHT22;8830;50.978;5.058;2022-07-23T14:25:07;28.40;99.90
17425;DHT22;8830;50.978;5.058;2022-07-23T14:27:34;28.40;99.90
17425;DHT22;8830;50.978;5.058;2022-07-23T14:30:04;28.70;99.90
17425;DHT22;8830;50.978;5.058;2022-07-23T14:32:32;29.00;99.90
17425;DHT22;8830;50.978;5.058;2022-07-23T14:34:59;28.90;99.90
17425;DHT22;8830;50.978;5.058;2022-07-23T14:37:28;28.80;99.90
17425;DHT22;8830;50.978;5.058;2022-07-23T14:39:55;28.70;99.90
17425;DHT22;8830;50.978;5.058;2022-07-23T14:42:23;28.60;99.90
17425;DHT22;8830;50.978;5.058;2022-07-23T14:44:50;28.80;99.90
17425;DHT22;8830;50.978;5.058;2022-07-23T14:47:17;28.80;99.90
17425;DHT22;8830;50.978;5.058;2022-07-23T14:49:44;28.80;99.90
17425;DHT22;8830;50.978;5.058;2022-07-23T14:52:11;28.80;99.90
17425;DHT22;8830;50.978;5.058;2022-07-23T14:57:08;28.90;99.90
17425;DHT22;8830;50.978;5.058;2022-07-23T14:59:37;28.80;99.90
17425;DHT22;8830;50.978;5.058;2022-07-23T15:04:31;28.70;99.90
17425;DHT22;8830;50.978;5.058;2022-07-23T15:06:58;28.60;99.90
17425;DHT22;8830;50.978;5.058;2022-07-23T15:09:25;28.50;99.90
17425;DHT22;8830;50.978;5.058;2022-07-23T15:11:54;28.70;99.90
17425;DHT22;8830;50.978;5.058;2022-07-23T15:14:21;28.80;99.90
17425;DHT22;8830;50.978;5.058;2022-07-23T15:16:48;28.80;99.90
17425;DHT22;8830;50.978;5.058;2022-07-23T15:19:15;28.80;99.90
17425;DHT22;8830;50.978;5.058;2022-07-23T15:21:42;29.00;99.90
17425;DHT22;8830;50.978;5.058;2022-07-23T15:24:09;29.00;99.90
17425;DHT22;8830;50.978;5.058;2022-07-23T15:26:36;29.20;99.90
17425;DHT22;8830;50.978;5.058;2022-07-23T15:29:05;29.20;99.90
17425;DHT22;8830;50.978;5.058;2022-07-23T15:31:33;29.30;99.90
17425;DHT22;8830;50.978;5.058;2022-07-23T15:34:03;29.20;99.90
17425;DHT22;8830;50.978;5.058;2022-07-23T15:36:30;29.20;99.90
17425;DHT22;8830;50.978;5.058;2022-07-23T15:38:57;29.00;99.90
17425;DHT22;8830;50.978;5.058;2022-07-23T15:46:23;28.90;99.90
17425;DHT22;8830;50.978;5.058;2022-07-23T15:48:51;29.10;99.90
17425;DHT22;8830;50.978;5.058;2022-07-23T15:51:18;29.30;99.90
17425;DHT22;8830;50.978;5.058;2022-07-23T15:53:46;29.30;99.90
17425;DHT22;8830;50.978;5.058;2022-07-23T15:56:13;29.30;99.90
17425;DHT22;8830;50.978;5.058;2022-07-23T15:58:40;29.50;99.90
17425;DHT22;8830;50.978;5.058;2022-07-23T16:01:07;29.50;99.90
17425;DHT22;8830;50.978;5.058;2022-07-23T16:03:36;29.50;99.90
17425;DHT22;8830;50.978;5.058;2022-07-23T16:06:06;29.50;99.90
17425;DHT22;8830;50.978;5.058;2022-07-23T16:08:33;29.40;99.90
17425;DHT22;8830;50.978;5.058;2022-07-23T16:11:01;29.30;99.90
17425;DHT22;8830;50.978;5.058;2022-07-23T16:13:29;28.90;99.90
17425;DHT22;8830;50.978;5.058;2022-07-23T16:15:56;28.80;99.90
17425;DHT22;8830;50.978;5.058;2022-07-23T16:18:24;28.90;99.90
17425;DHT22;8830;50.978;5.058;2022-07-23T16:20:53;28.80;99.90
17425;DHT22;8830;50.978;5.058;2022-07-23T16:23:21;27.30;99.90
17425;DHT22;8830;50.978;5.058;2022-07-23T16:25:48;28.50;99.90
17425;DHT22;8830;50.978;5.058;2022-07-23T16:28:17;28.60;99.90
17425;DHT22;8830;50.978;5.058;2022-07-23T16:30:44;28.50;99.90
17425;DHT22;8830;50.978;5.058;2022-07-23T16:33:11;28.30;99.90
17425;DHT22;8830;50.978;5.058;2022-07-23T16:35:39;28.40;99.90
17425;DHT22;8830;50.978;5.058;2022-07-23T16:38:07;28.10;99.90
17425;DHT22;8830;50.978;5.058;2022-07-23T16:40:34;28.10;99.90
17425;DHT22;8830;50.978;5.058;2022-07-23T16:43:02;27.80;99.90
17425;DHT22;8830;50.978;5.058;2022-07-23T16:45:30;27.80;99.90
17425;DHT22;8830;50.978;5.058;2022-07-23T16:47:57;27.80;99.90
17425;DHT22;8830;50.978;5.058;2022-07-23T16:50:24;27.70;99.90
17425;DHT22;8830;50.978;5.058;2022-07-23T16:52:51;27.70;99.90
17425;DHT22;8830;50.978;5.058;2022-07-23T16:57:48;27.20;99.90
17425;DHT22;8830;50.978;5.058;2022-07-23T17:00:16;27.10;99.90
17425;DHT22;8830;50.978;5.058;2022-07-23T17:02:44;27.10;99.90